sensor_id;sensor_type;location;lat;lon;timestamp;pressure;altitude;pressure_sealevel;temperature;humidity
40794;BME280;26502;51.886;15.604;2023-05-10T00:01:26;100661.23;;;10.22;48.36
40794;BME280;26502;51.886;15.604;2023-05-10T00:06:32;100654.27;;;10.19;48.42
40794;BME280;26502;51.886;15.604;2023-05-10T00:11:38;100650.04;;;10.12;48.48
40794;BME280;26502;51.886;15.604;2023-05-10T00:16:44;100648.23;;;10.12;48.72
40794;BME280;26502;51.886;15.604;2023-05-10T00:21:50;100639.33;;;10.08;48.74
40794;BME280;26502;51.886;15.604;2023-05-10T00:26:56;100633.88;;;10.00;48.82
40794;BME280;26502;51.886;15.604;2023-05-10T00:32:02;100635.02;;;9.93;48.99
40794;BME280;26502;51.886;15.604;2023-05-10T00:37:08;100631.13;;;9.92;49.11
40794;BME280;26502;51.886;15.604;2023-05-10T00:42:15;100624.77;;;9.85;49.10
40794;BME280;26502;51.886;15.604;2023-05-10T00:47:22;100618.01;;;9.80;49.33
40794;BME280;26502;51.886;15.604;2023-05-10T00:52:28;100612.11;;;9.75;49.38
40794;BME280;26502;51.886;15.604;2023-05-10T00:57:38;100608.20;;;9.76;49.48
40794;BME280;26502;51.886;15.604;2023-05-10T01:02:44;100610.62;;;9.72;49.60
40794;BME280;26502;51.886;15.604;2023-05-10T01:07:50;100607.31;;;9.70;49.52
40794;BME280;26502;51.886;15.604;2023-05-10T01:12:57;100604.98;;;9.65;49.48
40794;BME280;26502;51.886;15.604;2023-05-10T01:18:05;100604.02;;;9.62;49.68
40794;BME280;26502;51.886;15.604;2023-05-10T01:23:35;100606.20;;;9.54;49.76
40794;BME280;26502;51.886;15.604;2023-05-10T01:34:23;100599.40;;;9.44;50.15
40794;BME280;26502;51.886;15.604;2023-05-10T01:39:36;100590.90;;;9.31;50.26
40794;BME280;26502;51.886;15.604;2023-05-10T01:44:51;100589.46;;;9.25;50.52
40794;BME280;26502;51.886;15.604;2023-05-10T01:50:04;100593.95;;;9.17;50.55
40794;BME280;26502;51.886;15.604;2023-05-10T01:55:15;100591.80;;;9.17;50.75
40794;BME280;26502;51.886;15.604;2023-05-10T02:00:20;100595.55;;;9.17;50.75
40794;BME280;26502;51.886;15.604;2023-05-10T02:05:30;100594.64;;;9.11;50.95
40794;BME280;26502;51.886;15.604;2023-05-10T02:10:38;100588.84;;;9.10;51.16
40794;BME280;26502;51.886;15.604;2023-05-10T02:15:48;100589.72;;;9.03;51.25
40794;BME280;26502;51.886;15.604;2023-05-10T02:20:55;100585.55;;;9.00;51.25
40794;BME280;26502;51.886;15.604;2023-05-10T02:26:02;100583.27;;;9.00;51.39
40794;BME280;26502;51.886;15.604;2023-05-10T02:31:10;100577.08;;;8.93;51.48
40794;BME280;26502;51.886;15.604;2023-05-10T02:36:20;100573.55;;;8.86;51.54
40794;BME280;26502;51.886;15.604;2023-05-10T02:41:27;100577.63;;;8.79;51.78
40794;BME280;26502;51.886;15.604;2023-05-10T02:46:34;100570.40;;;8.71;51.90
40794;BME280;26502;51.886;15.604;2023-05-10T02:51:44;100574.40;;;8.60;52.13
40794;BME280;26502;51.886;15.604;2023-05-10T02:56:56;100573.75;;;8.58;52.32
40794;BME280;26502;51.886;15.604;2023-05-10T03:02:03;100573.59;;;8.50;52.37
40794;BME280;26502;51.886;15.604;2023-05-10T03:07:10;100570.23;;;8.42;52.57
40794;BME280;26502;51.886;15.604;2023-05-10T03:12:23;100569.55;;;8.41;52.65
40794;BME280;26502;51.886;15.604;2023-05-10T03:17:44;100573.33;;;8.31;52.73
40794;BME280;26502;51.886;15.604;2023-05-10T03:23:02;100564.31;;;8.16;53.15
40794;BME280;26502;51.886;15.604;2023-05-10T03:28:10;100568.66;;;8.12;53.32
40794;BME280;26502;51.886;15.604;2023-05-10T03:33:17;100560.54;;;8.12;53.40
40794;BME280;26502;51.886;15.604;2023-05-10T03:38:24;100557.06;;;8.09;53.63
40794;BME280;26502;51.886;15.604;2023-05-10T03:43:30;100560.88;;;8.12;53.84
40794;BME280;26502;51.886;15.604;2023-05-10T03:48:36;100561.27;;;8.18;53.91
40794;BME280;26502;51.886;15.604;2023-05-10T03:53:43;100561.39;;;8.20;53.96
40794;BME280;26502;51.886;15.604;2023-05-10T03:58:49;100562.86;;;8.18;54.15
40794;BME280;26502;51.886;15.604;2023-05-10T04:03:55;100564.78;;;8.19;54.27
40794;BME280;26502;51.886;15.604;2023-05-10T04:09:01;100562.86;;;8.25;54.41
40794;BME280;26502;51.886;15.604;2023-05-10T04:14:08;100559.63;;;8.34;54.54
40794;BME280;26502;51.886;15.604;2023-05-10T04:19:15;100561.48;;;8.45;54.62
40794;BME280;26502;51.886;15.604;2023-05-10T04:24:21;100557.80;;;8.52;54.58
40794;BME280;26502;51.886;15.604;2023-05-10T04:29:27;100555.05;;;8.62;54.63
40794;BME280;26502;51.886;15.604;2023-05-10T04:34:33;100547.92;;;8.71;54.76
40794;BME280;26502;51.886;15.604;2023-05-10T04:39:39;100544.02;;;8.78;54.77
40794;BME280;26502;51.886;15.604;2023-05-10T04:44:45;100544.26;;;8.95;54.93
40794;BME280;26502;51.886;15.604;2023-05-10T04:49:51;100542.20;;;9.11;54.74
40794;BME280;26502;51.886;15.604;2023-05-10T04:54:57;100544.42;;;9.26;54.80
40794;BME280;26502;51.886;15.604;2023-05-10T05:00:04;100537.54;;;9.49;54.86
40794;BME280;26502;51.886;15.604;2023-05-10T05:05:10;100533.27;;;9.73;54.60
40794;BME280;26502;51.886;15.604;2023-05-10T05:10:17;100535.00;;;9.97;54.53
40794;BME280;26502;51.886;15.604;2023-05-10T05:15:23;100534.09;;;10.25;54.44
40794;BME280;26502;51.886;15.604;2023-05-10T05:20:31;100524.48;;;10.57;54.33
40794;BME280;26502;51.886;15.604;2023-05-10T05:25:37;100524.52;;;10.91;54.08
40794;BME280;26502;51.886;15.604;2023-05-10T05:30:43;100525.04;;;11.21;53.87
40794;BME280;26502;51.886;15.604;2023-05-10T05:35:49;100526.67;;;11.44;53.65
40794;BME280;26502;51.886;15.604;2023-05-10T05:40:55;100526.23;;;11.64;53.32
40794;BME280;26502;51.886;15.604;2023-05-10T05:46:02;100525.05;;;11.81;53.33
40794;BME280;26502;51.886;15.604;2023-05-10T05:51:08;100525.46;;;12.07;52.87
40794;BME280;26502;51.886;15.604;2023-05-10T05:56:14;100528.30;;;12.28;52.67
40794;BME280;26502;51.886;15.604;2023-05-10T06:01:20;100524.93;;;12.45;52.53
40794;BME280;26502;51.886;15.604;2023-05-10T06:06:26;100527.42;;;12.69;52.36
40794;BME280;26502;51.886;15.604;2023-05-10T06:11:32;100525.02;;;12.96;51.86
40794;BME280;26502;51.886;15.604;2023-05-10T06:16:38;100523.23;;;13.16;51.69
40794;BME280;26502;51.886;15.604;2023-05-10T06:21:44;100527.48;;;13.41;51.53
40794;BME280;26502;51.886;15.604;2023-05-10T06:26:50;100523.77;;;13.63;51.14
40794;BME280;26502;51.886;15.604;2023-05-10T06:31:56;100524.30;;;13.74;50.46
40794;BME280;26502;51.886;15.604;2023-05-10T06:37:02;100523.23;;;13.78;50.50
40794;BME280;26502;51.886;15.604;2023-05-10T06:42:08;100525.02;;;13.93;50.15
40794;BME280;26502;51.886;15.604;2023-05-10T06:47:14;100523.84;;;14.06;49.77
40794;BME280;26502;51.886;15.604;2023-05-10T06:52:20;100520.87;;;14.30;49.79
40794;BME280;26502;51.886;15.604;2023-05-10T06:57:26;100523.86;;;14.45;49.25
40794;BME280;26502;51.886;15.604;2023-05-10T07:02:32;100520.86;;;14.33;48.61
40794;BME280;26502;51.886;15.604;2023-05-10T07:07:38;100521.30;;;14.49;48.88
40794;BME280;26502;51.886;15.604;2023-05-10T07:12:44;100520.59;;;14.85;48.66
40794;BME280;26502;51.886;15.604;2023-05-10T07:17:50;100518.33;;;15.13;48.19
40794;BME280;26502;51.886;15.604;2023-05-10T07:22:56;100505.39;;;15.21;48.02
40794;BME280;26502;51.886;15.604;2023-05-10T07:28:02;100505.36;;;15.58;47.91
40794;BME280;26502;51.886;15.604;2023-05-10T07:33:09;100500.05;;;15.83;47.43
40794;BME280;26502;51.886;15.604;2023-05-10T07:38:15;100503.70;;;15.90;46.84
40794;BME280;26502;51.886;15.604;2023-05-10T07:43:22;100498.83;;;15.92;46.72
40794;BME280;26502;51.886;15.604;2023-05-10T07:48:28;100499.51;;;16.14;46.63
40794;BME280;26502;51.886;15.604;2023-05-10T07:53:34;100497.08;;;16.46;46.44
40794;BME280;26502;51.886;15.604;2023-05-10T07:58:40;100490.73;;;16.71;45.95
40794;BME280;26502;51.886;15.604;2023-05-10T08:03:46;100489.86;;;16.94;45.77
40794;BME280;26502;51.886;15.604;2023-05-10T08:08:52;100487.21;;;17.11;45.22
40794;BME280;26502;51.886;15.604;2023-05-10T08:13:58;100485.73;;;17.29;45.05
40794;BME280;26502;51.886;15.604;2023-05-10T08:19:04;100482.45;;;17.35;44.57
40794;BME280;26502;51.886;15.604;2023-05-10T08:24:10;100483.98;;;17.67;44.56
40794;BME280;26502;51.886;15.604;2023-05-10T08:29:16;100478.14;;;17.88;44.08
40794;BME280;26502;51.886;15.604;2023-05-10T08:34:22;100473.18;;;18.04;43.89
40794;BME280;26502;51.886;15.604;2023-05-10T08:39:28;100472.15;;;18.14;43.53
40794;BME280;26502;51.886;15.604;2023-05-10T08:44:35;100477.69;;;18.38;43.12
40794;BME280;26502;51.886;15.604;2023-05-10T08:49:43;100474.77;;;18.31;42.52
40794;BME280;26502;51.886;15.604;2023-05-10T08:54:49;100474.98;;;18.41;42.75
40794;BME280;26502;51.886;15.604;2023-05-10T08:59:55;100468.76;;;18.87;42.61
40794;BME280;26502;51.886;15.604;2023-05-10T09:05:01;100473.51;;;19.24;42.02
40794;BME280;26502;51.886;15.604;2023-05-10T09:10:11;100472.21;;;19.25;41.51
40794;BME280;26502;51.886;15.604;2023-05-10T09:15:17;100463.48;;;19.39;41.54
40794;BME280;26502;51.886;15.604;2023-05-10T09:20:24;100464.30;;;19.54;41.02
40794;BME280;26502;51.886;15.604;2023-05-10T09:25:30;100466.80;;;19.62;40.70
40794;BME280;26502;51.886;15.604;2023-05-10T09:30:37;100468.90;;;19.68;40.17
40794;BME280;26502;51.886;15.604;2023-05-10T09:35:44;100473.71;;;19.93;40.10
40794;BME280;26502;51.886;15.604;2023-05-10T09:40:53;100469.42;;;20.26;39.88
40794;BME280;26502;51.886;15.604;2023-05-10T09:46:00;100467.66;;;20.40;39.59
40794;BME280;26502;51.886;15.604;2023-05-10T09:51:20;100462.20;;;20.24;39.31
40794;BME280;26502;51.886;15.604;2023-05-10T09:56:36;100463.38;;;20.16;39.23
40794;BME280;26502;51.886;15.604;2023-05-10T10:01:50;100463.00;;;20.28;38.77
40794;BME280;26502;51.886;15.604;2023-05-10T10:07:06;100455.92;;;20.19;38.82
40794;BME280;26502;51.886;15.604;2023-05-10T10:12:12;100455.35;;;20.26;38.44
40794;BME280;26502;51.886;15.604;2023-05-10T10:17:19;100457.44;;;20.09;38.38
40794;BME280;26502;51.886;15.604;2023-05-10T10:22:25;100442.87;;;20.48;38.33
40794;BME280;26502;51.886;15.604;2023-05-10T10:27:39;100451.84;;;20.89;37.96
40794;BME280;26502;51.886;15.604;2023-05-10T10:33:13;100441.85;;;20.78;37.02
40794;BME280;26502;51.886;15.604;2023-05-10T10:38:24;100443.84;;;21.12;37.18
40794;BME280;26502;51.886;15.604;2023-05-10T10:43:30;100444.89;;;21.25;36.80
40794;BME280;26502;51.886;15.604;2023-05-10T10:48:36;100440.89;;;21.35;36.45
40794;BME280;26502;51.886;15.604;2023-05-10T10:53:42;100428.64;;;21.28;36.25
40794;BME280;26502;51.886;15.604;2023-05-10T10:58:51;100427.23;;;21.32;36.37
40794;BME280;26502;51.886;15.604;2023-05-10T11:04:18;100425.09;;;21.38;36.33
40794;BME280;26502;51.886;15.604;2023-05-10T11:09:26;100432.20;;;21.73;36.01
40794;BME280;26502;51.886;15.604;2023-05-10T11:14:32;100429.60;;;22.04;35.59
40794;BME280;26502;51.886;15.604;2023-05-10T11:19:57;100426.77;;;22.05;35.54
40794;BME280;26502;51.886;15.604;2023-05-10T11:25:07;100422.05;;;22.56;35.36
40794;BME280;26502;51.886;15.604;2023-05-10T11:30:15;100423.65;;;22.57;35.20
40794;BME280;26502;51.886;15.604;2023-05-10T11:35:21;100424.56;;;22.71;35.00
40794;BME280;26502;51.886;15.604;2023-05-10T11:40:27;100420.14;;;22.97;34.45
40794;BME280;26502;51.886;15.604;2023-05-10T11:45:34;100416.38;;;23.15;34.63
40794;BME280;26502;51.886;15.604;2023-05-10T11:50:41;100424.91;;;23.05;33.64
40794;BME280;26502;51.886;15.604;2023-05-10T11:55:49;100423.36;;;22.60;33.55
40794;BME280;26502;51.886;15.604;2023-05-10T12:00:56;100428.42;;;22.20;33.73
40794;BME280;26502;51.886;15.604;2023-05-10T12:06:03;100435.90;;;22.21;34.16
40794;BME280;26502;51.886;15.604;2023-05-10T12:11:10;100435.77;;;22.04;33.73
40794;BME280;26502;51.886;15.604;2023-05-10T12:16:17;100430.40;;;22.12;34.16
40794;BME280;26502;51.886;15.604;2023-05-10T12:21:24;100434.30;;;22.63;34.15
40794;BME280;26502;51.886;15.604;2023-05-10T12:26:30;100428.70;;;22.80;34.14
40794;BME280;26502;51.886;15.604;2023-05-10T12:31:50;100428.69;;;23.21;33.42
40794;BME280;26502;51.886;15.604;2023-05-10T12:36:56;100422.80;;;22.96;33.63
40794;BME280;26502;51.886;15.604;2023-05-10T12:42:02;100424.31;;;22.91;33.74
40794;BME280;26502;51.886;15.604;2023-05-10T12:47:09;100418.43;;;22.94;33.50
40794;BME280;26502;51.886;15.604;2023-05-10T12:52:15;100420.23;;;22.57;33.43
40794;BME280;26502;51.886;15.604;2023-05-10T12:57:21;100422.69;;;22.43;33.68
40794;BME280;26502;51.886;15.604;2023-05-10T13:02:27;100422.00;;;22.96;33.49
40794;BME280;26502;51.886;15.604;2023-05-10T13:07:33;100423.70;;;23.37;33.47
40794;BME280;26502;51.886;15.604;2023-05-10T13:12:40;100421.14;;;23.71;32.94
40794;BME280;26502;51.886;15.604;2023-05-10T13:17:46;100423.98;;;23.39;32.70
40794;BME280;26502;51.886;15.604;2023-05-10T13:22:51;100421.70;;;22.88;32.73
40794;BME280;26502;51.886;15.604;2023-05-10T13:27:57;100414.54;;;23.24;32.64
40794;BME280;26502;51.886;15.604;2023-05-10T13:33:04;100405.88;;;23.75;32.60
40794;BME280;26502;51.886;15.604;2023-05-10T13:38:09;100403.10;;;24.07;32.08
40794;BME280;26502;51.886;15.604;2023-05-10T13:43:15;100400.04;;;24.48;31.95
40794;BME280;26502;51.886;15.604;2023-05-10T13:48:21;100404.34;;;24.81;31.67
40794;BME280;26502;51.886;15.604;2023-05-10T13:53:28;100397.92;;;24.89;30.94
40794;BME280;26502;51.886;15.604;2023-05-10T13:58:34;100397.52;;;24.24;30.59
40794;BME280;26502;51.886;15.604;2023-05-10T14:03:40;100395.27;;;24.19;30.91
40794;BME280;26502;51.886;15.604;2023-05-10T14:08:46;100397.92;;;24.43;30.92
40794;BME280;26502;51.886;15.604;2023-05-10T14:13:52;100386.53;;;24.52;30.33
40794;BME280;26502;51.886;15.604;2023-05-10T14:18:58;100386.57;;;24.63;29.86
40794;BME280;26502;51.886;15.604;2023-05-10T14:24:05;100381.02;;;24.72;29.84
40794;BME280;26502;51.886;15.604;2023-05-10T14:29:11;100379.29;;;25.14;30.12
40794;BME280;26502;51.886;15.604;2023-05-10T14:34:17;100371.59;;;25.39;29.81
40794;BME280;26502;51.886;15.604;2023-05-10T14:39:24;100374.57;;;25.62;29.82
40794;BME280;26502;51.886;15.604;2023-05-10T14:44:30;100377.40;;;25.52;29.41
40794;BME280;26502;51.886;15.604;2023-05-10T14:49:35;100374.95;;;25.42;29.25
40794;BME280;26502;51.886;15.604;2023-05-10T14:54:42;100372.77;;;25.44;28.97
40794;BME280;26502;51.886;15.604;2023-05-10T14:59:48;100377.42;;;25.46;28.62
40794;BME280;26502;51.886;15.604;2023-05-10T15:04:54;100381.98;;;25.33;28.58
40794;BME280;26502;51.886;15.604;2023-05-10T15:10:00;100383.26;;;25.44;28.33
40794;BME280;26502;51.886;15.604;2023-05-10T15:15:07;100387.17;;;25.45;28.38
40794;BME280;26502;51.886;15.604;2023-05-10T15:20:14;100388.41;;;25.30;28.20
40794;BME280;26502;51.886;15.604;2023-05-10T15:25:20;100393.61;;;25.24;28.26
40794;BME280;26502;51.886;15.604;2023-05-10T15:30:26;100394.52;;;24.69;28.05
40794;BME280;26502;51.886;15.604;2023-05-10T15:35:32;100398.37;;;24.31;28.20
40794;BME280;26502;51.886;15.604;2023-05-10T15:40:38;100402.85;;;24.20;28.49
40794;BME280;26502;51.886;15.604;2023-05-10T15:45:44;100405.33;;;23.65;28.60
40794;BME280;26502;51.886;15.604;2023-05-10T15:50:50;100397.02;;;23.75;28.86
40794;BME280;26502;51.886;15.604;2023-05-10T15:55:56;100398.43;;;23.63;29.14
40794;BME280;26502;51.886;15.604;2023-05-10T16:01:02;100400.06;;;23.67;29.08
40794;BME280;26502;51.886;15.604;2023-05-10T16:06:09;100400.77;;;23.80;29.43
40794;BME280;26502;51.886;15.604;2023-05-10T16:11:15;100404.53;;;23.74;29.53
40794;BME280;26502;51.886;15.604;2023-05-10T16:16:21;100403.19;;;23.45;29.63
40794;BME280;26502;51.886;15.604;2023-05-10T16:21:27;100403.02;;;23.39;29.73
40794;BME280;26502;51.886;15.604;2023-05-10T16:26:33;100406.58;;;23.41;29.85
40794;BME280;26502;51.886;15.604;2023-05-10T16:31:44;100407.42;;;23.36;29.81
40794;BME280;26502;51.886;15.604;2023-05-10T16:36:50;100410.98;;;23.21;29.94
40794;BME280;26502;51.886;15.604;2023-05-10T16:41:56;100408.36;;;22.97;29.96
40794;BME280;26502;51.886;15.604;2023-05-10T16:47:02;100406.96;;;22.70;30.17
40794;BME280;26502;51.886;15.604;2023-05-10T16:52:08;100413.20;;;22.33;30.44
40794;BME280;26502;51.886;15.604;2023-05-10T16:57:14;100423.77;;;22.06;30.55
40794;BME280;26502;51.886;15.604;2023-05-10T17:02:20;100423.32;;;21.84;30.81
40794;BME280;26502;51.886;15.604;2023-05-10T17:07:26;100427.97;;;21.69;31.13
40794;BME280;26502;51.886;15.604;2023-05-10T17:12:33;100438.08;;;21.51;31.33
40794;BME280;26502;51.886;15.604;2023-05-10T17:17:39;100440.70;;;21.35;31.71
40794;BME280;26502;51.886;15.604;2023-05-10T17:22:45;100445.34;;;21.20;32.06
40794;BME280;26502;51.886;15.604;2023-05-10T17:27:51;100448.23;;;21.17;32.17
40794;BME280;26502;51.886;15.604;2023-05-10T17:32:57;100453.33;;;21.04;32.27
40794;BME280;26502;51.886;15.604;2023-05-10T17:38:03;100455.70;;;20.96;32.55
40794;BME280;26502;51.886;15.604;2023-05-10T17:43:10;100459.38;;;20.89;32.77
40794;BME280;26502;51.886;15.604;2023-05-10T17:48:16;100465.05;;;20.83;33.06
40794;BME280;26502;51.886;15.604;2023-05-10T17:53:22;100470.80;;;20.74;33.31
40794;BME280;26502;51.886;15.604;2023-05-10T17:58:28;100476.08;;;20.59;33.58
40794;BME280;26502;51.886;15.604;2023-05-10T18:03:34;100483.71;;;20.35;34.02
40794;BME280;26502;51.886;15.604;2023-05-10T18:08:40;100489.33;;;20.28;34.57
40794;BME280;26502;51.886;15.604;2023-05-10T18:13:46;100492.14;;;20.17;34.82
40794;BME280;26502;51.886;15.604;2023-05-10T18:18:52;100500.71;;;20.03;35.01
40794;BME280;26502;51.886;15.604;2023-05-10T18:23:58;100506.11;;;19.84;35.72
40794;BME280;26502;51.886;15.604;2023-05-10T18:29:04;100508.41;;;19.74;35.94
40794;BME280;26502;51.886;15.604;2023-05-10T18:34:11;100510.30;;;19.56;36.32
40794;BME280;26502;51.886;15.604;2023-05-10T18:39:17;100515.02;;;19.40;36.75
40794;BME280;26502;51.886;15.604;2023-05-10T18:44:23;100523.63;;;19.23;36.99
40794;BME280;26502;51.886;15.604;2023-05-10T18:49:30;100530.91;;;19.12;37.42
40794;BME280;26502;51.886;15.604;2023-05-10T18:54:36;100536.85;;;18.94;37.67
40794;BME280;26502;51.886;15.604;2023-05-10T18:59:42;100542.89;;;18.74;38.21
40794;BME280;26502;51.886;15.604;2023-05-10T19:04:48;100547.83;;;18.59;38.43
40794;BME280;26502;51.886;15.604;2023-05-10T19:09:54;100556.09;;;18.46;38.78
40794;BME280;26502;51.886;15.604;2023-05-10T19:15:00;100562.31;;;18.31;39.02
40794;BME280;26502;51.886;15.604;2023-05-10T19:20:07;100566.10;;;18.20;39.16
40794;BME280;26502;51.886;15.604;2023-05-10T19:25:13;100572.97;;;18.03;39.69
40794;BME280;26502;51.886;15.604;2023-05-10T19:30:20;100574.77;;;17.88;39.90
40794;BME280;26502;51.886;15.604;2023-05-10T19:35:26;100576.39;;;17.71;40.15
40794;BME280;26502;51.886;15.604;2023-05-10T19:40:32;100577.73;;;17.62;40.52
40794;BME280;26502;51.886;15.604;2023-05-10T19:45:38;100578.14;;;17.49;40.57
40794;BME280;26502;51.886;15.604;2023-05-10T19:50:44;100581.05;;;17.37;41.08
40794;BME280;26502;51.886;15.604;2023-05-10T19:55:50;100583.81;;;17.28;41.31
40794;BME280;26502;51.886;15.604;2023-05-10T20:00:57;100592.63;;;17.18;41.53
40794;BME280;26502;51.886;15.604;2023-05-10T20:06:03;100598.20;;;17.03;41.79
40794;BME280;26502;51.886;15.604;2023-05-10T20:11:09;100598.52;;;16.92;41.97
40794;BME280;26502;51.886;15.604;2023-05-10T20:16:15;100599.96;;;16.80;42.35
40794;BME280;26502;51.886;15.604;2023-05-10T20:21:21;100598.22;;;16.70;42.45
40794;BME280;26502;51.886;15.604;2023-05-10T20:26:28;100601.91;;;16.55;42.75
40794;BME280;26502;51.886;15.604;2023-05-10T20:31:34;100606.20;;;16.43;43.25
40794;BME280;26502;51.886;15.604;2023-05-10T20:36:39;100611.23;;;16.31;43.44
40794;BME280;26502;51.886;15.604;2023-05-10T20:41:46;100608.25;;;16.20;43.54
40794;BME280;26502;51.886;15.604;2023-05-10T20:46:52;100604.11;;;16.11;43.89
40794;BME280;26502;51.886;15.604;2023-05-10T20:51:59;100607.61;;;15.96;44.18
40794;BME280;26502;51.886;15.604;2023-05-10T20:57:06;100606.48;;;15.81;44.39
40794;BME280;26502;51.886;15.604;2023-05-10T21:02:12;100606.40;;;15.59;44.67
40794;BME280;26502;51.886;15.604;2023-05-10T21:07:18;100609.47;;;15.36;44.84
40794;BME280;26502;51.886;15.604;2023-05-10T21:12:24;100615.21;;;15.25;45.04
40794;BME280;26502;51.886;15.604;2023-05-10T21:17:31;100617.77;;;15.07;45.49
40794;BME280;26502;51.886;15.604;2023-05-10T21:22:38;100614.47;;;14.98;45.69
40794;BME280;26502;51.886;15.604;2023-05-10T21:27:44;100619.23;;;14.92;45.98
40794;BME280;26502;51.886;15.604;2023-05-10T21:32:50;100622.61;;;14.83;46.29
40794;BME280;26502;51.886;15.604;2023-05-10T21:37:58;100619.67;;;14.73;46.50
40794;BME280;26502;51.886;15.604;2023-05-10T21:43:04;100618.14;;;14.64;46.54
40794;BME280;26502;51.886;15.604;2023-05-10T21:48:10;100621.70;;;14.57;46.65
40794;BME280;26502;51.886;15.604;2023-05-10T21:53:16;100627.11;;;14.45;46.82
40794;BME280;26502;51.886;15.604;2023-05-10T21:58:23;100620.76;;;14.29;47.33
40794;BME280;26502;51.886;15.604;2023-05-10T22:03:30;100624.90;;;14.10;47.30
40794;BME280;26502;51.886;15.604;2023-05-10T22:08:36;100625.12;;;13.90;47.60
40794;BME280;26502;51.886;15.604;2023-05-10T22:13:42;100629.23;;;13.71;47.93
40794;BME280;26502;51.886;15.604;2023-05-10T22:18:48;100631.21;;;13.55;48.09
40794;BME280;26502;51.886;15.604;2023-05-10T22:23:55;100634.98;;;13.46;48.43
40794;BME280;26502;51.886;15.604;2023-05-10T22:29:01;100635.23;;;13.45;48.74
40794;BME280;26502;51.886;15.604;2023-05-10T22:34:07;100640.45;;;13.40;48.86
40794;BME280;26502;51.886;15.604;2023-05-10T22:39:13;100646.63;;;13.37;48.94
40794;BME280;26502;51.886;15.604;2023-05-10T22:44:19;100648.17;;;13.38;49.12
40794;BME280;26502;51.886;15.604;2023-05-10T22:49:25;100651.95;;;13.29;49.38
40794;BME280;26502;51.886;15.604;2023-05-10T22:54:31;100654.34;;;13.11;49.35
40794;BME280;26502;51.886;15.604;2023-05-10T22:59:37;100661.02;;;12.88;49.65
40794;BME280;26502;51.886;15.604;2023-05-10T23:04:43;100667.45;;;12.66;49.98
40794;BME280;26502;51.886;15.604;2023-05-10T23:09:49;100668.38;;;12.52;50.37
40794;BME280;26502;51.886;15.604;2023-05-10T23:14:55;100672.16;;;12.42;50.46
40794;BME280;26502;51.886;15.604;2023-05-10T23:20:01;100673.63;;;12.37;50.78
40794;BME280;26502;51.886;15.604;2023-05-10T23:25:09;100669.08;;;12.26;51.14
40794;BME280;26502;51.886;15.604;2023-05-10T23:30:15;100672.17;;;12.15;51.40
40794;BME280;26502;51.886;15.604;2023-05-10T23:35:21;100673.69;;;12.03;51.76
40794;BME280;26502;51.886;15.604;2023-05-10T23:40:27;100677.55;;;12.00;52.08
40794;BME280;26502;51.886;15.604;2023-05-10T23:45:33;100678.43;;;12.00;52.20
40794;BME280;26502;51.886;15.604;2023-05-10T23:50:44;100676.21;;;11.98;52.39
40794;BME280;26502;51.886;15.604;2023-05-10T23:55:50;100677.80;;;11.88;52.59
